Time;durP1;ratioP1;P1;durP2;ratioP2;P2;SDS_P1;SDS_P2;PMS_P1;PMS_P2;Temp;Humidity;BMP_temperature;BMP_pressure;BME280_temperature;BME280_humidity;BME280_pressure;Samples;Min_cycle;Max_cycle;Signal;HPM_P1;HPM_P2
2022/05/15 00:00:37;5034.00;0.02;9.34;0.00;0.00;0.62;;;;;19.10;1.00;;;;;;2267666;61;1140;-85
2022/05/15 00:00:38;55920.00;0.19;97.42;0.00;0.00;0.62;;;;;19.00;1.00;;;;;;2267624;61;835;-85
2022/05/15 00:03:06;33909.00;0.11;59.35;0.00;0.00;0.62;;;;;19.10;1.00;;;;;;2267694;61;2101;-85
2022/05/15 00:05:33;164868.00;0.55;285.43;51457.00;0.17;89.71;;;;;19.10;1.00;;;;;;2267933;61;1110;-85
2022/05/15 00:08:02;76221.00;0.25;132.51;0.00;0.00;0.62;;;;;18.90;1.00;;;;;;2267672;61;2104;-87
2022/05/15 00:10:30;0.00;0.00;0.62;0.00;0.00;0.62;;;;;18.70;1.00;;;;;;2268271;61;1136;-85
2022/05/15 00:12:57;257731.00;0.86;445.25;47766.00;0.16;83.32;;;;;18.90;1.00;;;;;;2268185;61;1304;-86
2022/05/15 00:15:24;50080.00;0.17;87.32;0.00;0.00;0.62;;;;;18.80;1.00;;;;;;2267877;61;1123;-85
2022/05/15 00:17:53;0.00;0.00;0.62;0.00;0.00;0.62;;;;;18.80;1.00;;;;;;2268354;61;1559;-85
2022/05/15 00:20:21;0.00;0.00;0.62;0.00;0.00;0.62;;;;;18.50;1.00;;;;;;2268308;61;1111;-84
2022/05/15 00:22:48;26947.00;0.09;47.30;0.00;0.00;0.62;;;;;18.60;1.00;;;;;;2268387;61;1269;-86
2022/05/15 00:25:16;0.00;0.00;0.62;0.00;0.00;0.62;;;;;18.50;1.00;;;;;;2268187;61;1107;-85
2022/05/15 00:27:43;4367.00;0.01;8.19;0.00;0.00;0.62;;;;;18.70;1.00;;;;;;2268152;61;2014;-85
2022/05/15 00:30:13;117242.00;0.39;203.32;0.00;0.00;0.62;;;;;18.20;1.00;;;;;;2268428;61;1530;-84
2022/05/15 00:32:40;47287.00;0.16;82.49;0.00;0.00;0.62;;;;;17.90;1.00;;;;;;2268366;61;1375;-84
2022/05/15 00:35:08;15846.00;0.05;28.08;0.00;0.00;0.62;;;;;18.20;1.00;;;;;;2268374;61;1033;-85
2022/05/15 00:37:35;105468.00;0.35;183.01;37887.00;0.13;66.23;;;;;18.10;1.00;;;;;;2268751;61;1118;-85
2022/05/15 00:40:03;228270.00;0.76;394.57;0.00;0.00;0.62;;;;;18.10;1.00;;;;;;2268420;61;1440;-85
2022/05/15 00:42:31;236508.00;0.79;408.74;102639.00;0.34;178.13;;;;;18.40;1.00;;;;;;2268296;61;1372;-85
2022/05/15 00:44:58;81076.00;0.27;140.90;0.00;0.00;0.62;;;;;18.50;1.00;;;;;;2268405;61;1171;-85
2022/05/15 00:47:25;8140.00;0.03;14.73;0.00;0.00;0.62;;;;;18.40;1.00;;;;;;2268383;61;1920;-84
2022/05/15 00:49:56;818855.00;2.73;1414.03;180935.00;0.60;313.10;;;;;18.20;1.00;;;;;;2268272;61;953;-84
2022/05/15 00:52:28;69799.00;0.23;121.41;0.00;0.00;0.62;;;;;18.40;1.00;;;;;;2268624;61;1390;-84
2022/05/15 00:55:03;456178.00;1.52;786.41;188570.00;0.63;326.25;;;;;18.50;1.00;;;;;;2268366;61;1125;-84
2022/05/15 00:57:35;2590.00;0.01;5.11;0.00;0.00;0.62;;;;;18.10;1.00;;;;;;2268457;61;1115;-85
2022/05/15 01:00:06;0.00;0.00;0.62;0.00;0.00;0.62;;;;;18.10;1.00;;;;;;2268502;61;2090;-85
2022/05/15 01:02:38;6069.00;0.02;11.14;0.00;0.00;0.62;;;;;18.20;1.00;;;;;;2268480;61;1378;-85
2022/05/15 01:05:06;5032.00;0.02;9.34;0.00;0.00;0.62;;;;;18.50;1.00;;;;;;2268401;61;1055;-85
2022/05/15 01:07:33;17922.00;0.06;31.67;0.00;0.00;0.62;;;;;18.50;1.00;;;;;;2268539;61;1909;-85
2022/05/15 01:10:01;11265.00;0.04;20.14;0.00;0.00;0.62;;;;;18.30;1.00;;;;;;2268525;61;1063;-85
2022/05/15 01:12:29;46420.00;0.15;80.99;0.00;0.00;0.62;;;;;18.10;1.00;;;;;;2268345;61;1287;-84
2022/05/15 01:14:58;19925.00;0.07;35.14;0.00;0.00;0.62;;;;;18.20;1.00;;;;;;2268377;61;1555;-85
2022/05/15 01:17:25;32101.00;0.11;56.22;0.00;0.00;0.62;;;;;18.30;1.00;;;;;;2268416;61;1136;-85
2022/05/15 01:20:00;15920.00;0.05;28.20;0.00;0.00;0.62;;;;;18.40;1.00;;;;;;2268533;61;972;-84
2022/05/15 01:22:29;0.00;0.00;0.62;0.00;0.00;0.62;;;;;18.40;1.00;;;;;;2268630;61;1393;-84
2022/05/15 01:24:55;26823.00;0.09;47.08;0.00;0.00;0.62;;;;;18.50;1.00;;;;;;2268467;61;1068;-84
2022/05/15 01:27:22;525755.00;1.75;906.18;177299.00;0.59;306.84;;;;;18.60;1.00;;;;;;2268408;61;1989;-84
2022/05/15 01:29:51;174794.00;0.58;302.52;15226.00;0.05;27.00;;;;;18.60;1.00;;;;;;2268384;61;1103;-84
2022/05/15 01:32:18;8956.00;0.03;16.14;0.00;0.00;0.62;;;;;18.30;1.00;;;;;;2268327;61;1399;-85
2022/05/15 01:34:45;105122.00;0.35;182.41;0.00;0.00;0.62;;;;;18.20;1.00;;;;;;2268452;61;1088;-83
2022/05/15 01:37:12;81502.00;0.27;141.63;0.00;0.00;0.62;;;;;17.80;1.00;;;;;;2268206;61;1162;-83
2022/05/15 01:39:41;0.00;0.00;0.62;0.00;0.00;0.62;;;;;17.60;1.00;;;;;;2268247;61;1065;-84
2022/05/15 01:42:08;28319.00;0.09;49.67;0.00;0.00;0.62;;;;;18.00;1.00;;;;;;2268348;61;1416;-84
2022/05/15 01:44:35;706138.00;2.35;1217.88;107999.00;0.36;187.38;;;;;18.00;1.00;;;;;;2268341;61;1350;-84
2022/05/15 01:47:02;621032.00;2.07;1070.55;51610.00;0.17;89.97;;;;;17.90;1.00;;;;;;2268377;61;1997;-85
2022/05/15 01:49:29;685029.00;2.28;1181.29;7334.00;0.02;13.33;;;;;17.60;1.00;;;;;;2268197;61;1175;-84
2022/05/15 01:51:56;1004859.00;3.35;1741.08;167828.00;0.56;290.53;;;;;17.60;1.00;;;;;;2268359;61;1268;-83
2022/05/15 01:54:23;729998.00;2.43;1259.30;45905.00;0.15;80.10;;;;;17.80;1.00;;;;;;2268619;61;1179;-85
2022/05/15 01:56:51;591587.00;1.97;1019.70;61795.00;0.21;107.58;;;;;17.80;1.00;;;;;;2268539;61;1113;-83
2022/05/15 01:59:18;906012.00;3.02;1566.68;26355.00;0.09;46.27;;;;;18.00;1.00;;;;;;2268330;61;1298;-86
2022/05/15 02:01:45;783659.00;2.61;1352.64;64027.00;0.21;111.44;;;;;17.70;1.00;;;;;;2268298;61;1257;-85
2022/05/15 02:04:12;563907.00;1.88;971.94;11403.00;0.04;20.38;;;;;17.60;1.00;;;;;;2268334;61;1120;-85
2022/05/15 02:06:39;857964.00;2.86;1482.41;74745.00;0.25;129.96;;;;;17.80;1.00;;;;;;2268550;61;1136;-83
2022/05/15 02:09:09;563830.00;1.88;971.81;17785.00;0.06;31.43;;;;;17.70;1.00;;;;;;2268160;61;2017;-85
2022/05/15 02:11:38;795790.00;2.65;1373.78;80989.00;0.27;140.75;;;;;18.00;1.00;;;;;;2268452;61;1436;-85
2022/05/15 02:14:07;652129.00;2.17;1124.32;49951.00;0.17;87.10;;;;;17.90;1.00;;;;;;2268232;61;991;-85
2022/05/15 02:16:34;1245934.00;4.15;2173.49;122624.00;0.41;212.61;;;;;17.70;1.00;;;;;;2268262;61;1160;-85
2022/05/15 02:19:01;693753.00;2.31;1196.41;24702.00;0.08;43.41;;;;;17.80;1.00;;;;;;2268147;61;1726;-86
2022/05/15 02:21:28;546331.00;1.82;941.63;72003.00;0.24;125.22;;;;;17.70;1.00;;;;;;2268351;61;1428;-86
2022/05/15 02:23:55;702187.00;2.34;1211.03;51185.00;0.17;89.24;;;;;17.70;1.00;;;;;;2267982;61;1259;-86
2022/05/15 02:26:22;649638.00;2.17;1120.01;17636.00;0.06;31.18;;;;;17.70;1.00;;;;;;2268213;61;1088;-85
2022/05/15 02:28:49;1040482.00;3.47;1804.30;80087.00;0.27;139.19;;;;;17.80;1.00;;;;;;2268074;61;1993;-84
2022/05/15 02:31:17;1013682.00;3.38;1756.72;129684.00;0.43;224.78;;;;;18.00;1.00;;;;;;2268078;61;1099;-85
2022/05/15 02:33:45;1008675.00;3.36;1747.84;107233.00;0.36;186.06;;;;;18.10;1.00;;;;;;2268247;61;1155;-85
2022/05/15 02:36:12;1391129.00;4.64;2439.88;176270.00;0.59;305.07;;;;;17.80;1.00;;;;;;2268219;61;1120;-85
2022/05/15 02:38:39;1083068.00;3.61;1880.17;147031.00;0.49;254.69;;;;;17.80;1.00;;;;;;2268109;61;1244;-85
2022/05/15 02:41:06;1044351.00;3.48;1811.18;139297.00;0.46;241.36;;;;;17.70;1.00;;;;;;2268139;61;1111;-84
2022/05/15 02:43:33;730725.00;2.44;1260.56;105247.00;0.35;182.63;;;;;17.40;1.00;;;;;;2268112;61;2150;-85
2022/05/15 02:46:00;314951.00;1.05;543.62;90016.00;0.30;156.34;;;;;17.50;1.00;;;;;;2268080;61;1120;-86
2022/05/15 02:51:13;782845.00;2.61;1351.22;201721.00;0.67;348.89;;;;;17.60;1.00;;;;;;2268213;61;664;-84
2022/05/15 02:53:42;330501.00;1.10;570.35;84715.00;0.28;147.18;;;;;17.70;1.00;;;;;;2267920;61;1233;-84
2022/05/15 02:56:13;282127.00;0.94;487.19;87536.00;0.29;152.05;;;;;16.90;1.00;;;;;;2267949;61;1175;-84
2022/05/15 02:58:40;202030.00;0.67;349.42;91840.00;0.31;159.48;;;;;17.00;1.00;;;;;;2268123;61;1057;-84
2022/05/15 03:01:07;270187.00;0.90;466.67;70673.00;0.24;122.92;;;;;16.90;1.00;;;;;;2268068;61;1143;-84
2022/05/15 03:03:35;401717.00;1.34;692.76;111646.00;0.37;193.67;;;;;17.00;1.00;;;;;;2268030;61;1240;-85
2022/05/15 03:06:03;344062.00;1.15;593.66;92178.00;0.31;160.07;;;;;17.10;1.00;;;;;;2268045;61;1573;-85
2022/05/15 03:08:32;312707.00;1.04;539.76;78383.00;0.26;136.24;;;;;17.10;1.00;;;;;;2267920;61;1923;-85
2022/05/15 03:10:59;356232.00;1.19;614.57;82730.00;0.28;143.75;;;;;17.10;1.00;;;;;;2268011;61;1123;-85
2022/05/15 03:13:26;358664.00;1.20;618.75;97834.00;0.33;169.83;;;;;17.00;1.00;;;;;;2267832;61;1266;-85
2022/05/15 03:15:53;308752.00;1.03;532.96;90783.00;0.30;157.66;;;;;16.90;1.00;;;;;;2268389;61;1119;-85
2022/05/15 03:18:20;233176.00;0.78;403.01;89842.00;0.30;156.03;;;;;16.60;1.00;;;;;;2267920;61;1025;-86
2022/05/15 03:20:48;177420.00;0.59;307.05;80557.00;0.27;140.00;;;;;16.60;1.00;;;;;;2267672;61;1122;-85
2022/05/15 03:23:15;602947.00;2.01;1039.31;241141.00;0.80;416.71;;;;;16.60;1.00;;;;;;2267694;61;1428;-85
2022/05/15 03:25:43;197584.00;0.66;341.76;80876.00;0.27;140.55;;;;;16.70;1.00;;;;;;2267820;61;1152;-85
2022/05/15 03:28:10;238386.00;0.79;411.97;82064.00;0.27;142.60;;;;;17.00;1.00;;;;;;2267778;61;1996;-84
2022/05/15 03:30:37;220222.00;0.73;380.73;84693.00;0.28;147.14;;;;;16.80;1.00;;;;;;2268018;61;1089;-85
2022/05/15 03:33:04;218228.00;0.73;377.29;85220.00;0.28;148.05;;;;;16.80;1.00;;;;;;2267816;61;1387;-84
2022/05/15 03:35:31;239316.00;0.80;413.57;80678.00;0.27;140.21;;;;;16.50;1.00;;;;;;2267967;61;1160;-85
2022/05/15 03:38:00;306062.00;1.02;528.34;78720.00;0.26;136.83;;;;;16.30;1.00;;;;;;2267864;61;1147;-84
2022/05/15 03:40:28;192598.00;0.64;333.18;82382.00;0.27;143.15;;;;;16.40;1.00;;;;;;2268288;61;1049;-84
2022/05/15 03:42:56;460371.00;1.53;793.62;152749.00;0.51;264.54;;;;;16.80;1.00;;;;;;2268263;61;1292;-84
2022/05/15 03:45:23;209241.00;0.70;361.83;83029.00;0.28;144.27;;;;;16.70;1.00;;;;;;2267847;61;960;-85
2022/05/15 03:47:52;173055.00;0.58;299.53;90223.00;0.30;156.69;;;;;16.90;1.00;;;;;;2267708;61;1938;-86
2022/05/15 03:50:20;231772.00;0.77;400.60;82987.00;0.28;144.20;;;;;17.20;1.00;;;;;;2267361;61;1144;-86
2022/05/15 03:52:47;168467.00;0.56;291.63;79557.00;0.27;138.27;;;;;16.80;1.00;;;;;;2267625;61;1452;-86
2022/05/15 03:55:15;183895.00;0.61;318.20;81547.00;0.27;141.71;;;;;16.90;1.00;;;;;;2267442;61;2012;-86
2022/05/15 03:57:42;267894.00;0.89;462.72;115194.00;0.38;199.79;;;;;16.90;1.00;;;;;;2267698;61;1308;-86
2022/05/15 04:00:14;244670.00;0.82;422.78;81733.00;0.27;142.03;;;;;17.30;1.00;;;;;;2267698;61;1083;-84
2022/05/15 04:02:41;319109.00;1.06;550.77;85426.00;0.28;148.41;;;;;17.60;1.00;;;;;;2267698;61;1410;-85
2022/05/15 04:05:10;383434.00;1.28;661.33;152991.00;0.51;264.96;;;;;17.70;1.00;;;;;;2267797;61;1195;-84
2022/05/15 04:07:43;235228.00;0.78;406.54;93993.00;0.31;163.20;;;;;17.70;1.00;;;;;;2267730;61;1939;-85
2022/05/15 04:10:10;286071.00;0.95;493.97;83031.00;0.28;144.27;;;;;17.50;1.00;;;;;;2267665;61;1179;-85
2022/05/15 04:12:39;253542.00;0.85;438.04;103845.00;0.35;180.21;;;;;17.30;1.00;;;;;;2267708;61;1378;-84
2022/05/15 04:15:06;396139.00;1.32;683.17;135771.00;0.45;235.28;;;;;17.00;1.00;;;;;;2267627;61;1082;-85
2022/05/15 04:17:33;197684.00;0.66;341.94;84140.00;0.28;146.19;;;;;16.60;1.00;;;;;;2267613;61;1738;-85
2022/05/15 04:20:02;368999.00;1.23;636.52;149682.00;0.50;259.26;;;;;16.70;1.00;;;;;;2267623;61;1119;-85
2022/05/15 04:22:29;292613.00;0.98;505.22;75593.00;0.25;131.42;;;;;16.60;1.00;;;;;;2267702;61;1342;-85
2022/05/15 04:24:56;296776.00;0.99;512.38;85109.00;0.28;147.86;;;;;16.80;1.00;;;;;;2268151;61;1062;-84
2022/05/15 04:27:24;269986.00;0.90;466.32;78298.00;0.26;136.10;;;;;17.10;1.00;;;;;;2268121;61;1030;-83
2022/05/15 04:29:53;174181.00;0.58;301.47;84216.00;0.28;146.32;;;;;17.30;1.00;;;;;;2267394;61;2000;-85
2022/05/15 04:32:20;275389.00;0.92;475.61;90803.00;0.30;157.69;;;;;17.30;1.00;;;;;;2267516;61;1251;-84
2022/05/15 04:34:47;233567.00;0.78;403.69;83626.00;0.28;145.30;;;;;17.20;1.00;;;;;;2267251;61;1137;-85
2022/05/15 04:37:14;224799.00;0.75;388.60;86075.00;0.29;149.53;;;;;17.00;1.00;;;;;;2267624;61;1142;-84
2022/05/15 04:39:41;250638.00;0.84;433.05;67429.00;0.22;117.32;;;;;16.90;1.00;;;;;;2267553;61;1172;-84
2022/05/15 04:42:09;271386.00;0.90;468.73;101543.00;0.34;176.24;;;;;16.60;1.00;;;;;;2267497;61;1402;-84
2022/05/15 04:44:36;264098.00;0.88;456.20;106658.00;0.36;185.06;;;;;16.90;1.00;;;;;;2267574;61;1150;-85
2022/05/15 04:47:05;174836.00;0.58;302.60;83487.00;0.28;145.06;;;;;17.00;1.00;;;;;;2267412;61;1113;-86
2022/05/15 04:49:32;229403.00;0.76;396.52;81192.00;0.27;141.10;;;;;17.10;1.00;;;;;;2267256;61;1931;-85
2022/05/15 04:51:59;231980.00;0.77;400.96;81205.00;0.27;141.12;;;;;17.20;1.00;;;;;;2267319;61;1384;-85
2022/05/15 04:54:26;53818.00;0.18;93.79;0.00;0.00;0.62;;;;;16.50;1.00;;;;;;2267164;61;1140;-85
2022/05/15 04:56:53;17175.00;0.06;30.38;0.00;0.00;0.62;;;;;16.30;1.00;;;;;;2267220;61;1112;-85
2022/05/15 04:59:20;64047.00;0.21;111.47;0.00;0.00;0.62;;;;;16.10;1.00;;;;;;2267306;61;1451;-86
2022/05/15 05:01:47;0.00;0.00;0.62;0.00;0.00;0.62;;;;;15.80;1.00;;;;;;2267688;61;1232;-85
2022/05/15 05:04:15;15582.00;0.05;27.62;0.00;0.00;0.62;;;;;15.70;1.00;;;;;;2268086;61;1130;-85
2022/05/15 05:06:42;206003.00;0.69;356.26;34047.00;0.11;59.59;;;;;15.60;1.00;;;;;;2268164;61;1523;-85
2022/05/15 05:09:10;17550.00;0.06;31.03;0.00;0.00;0.62;;;;;15.90;1.00;;;;;;2268455;61;2000;-85
2022/05/15 05:11:37;104443.00;0.35;181.24;11763.00;0.04;21.00;;;;;15.90;1.00;;;;;;2268657;61;1395;-84
2022/05/15 05:14:04;16879.00;0.06;29.87;0.00;0.00;0.62;;;;;16.40;1.00;;;;;;2268741;61;1084;-84
2022/05/15 05:16:33;0.00;0.00;0.62;0.00;0.00;0.62;;;;;16.80;1.00;;;;;;2268699;61;2168;-83
2022/05/15 05:19:00;40571.00;0.14;70.88;0.00;0.00;0.62;;;;;17.10;1.00;;;;;;2268590;61;1083;-85
2022/05/15 05:21:28;7845.00;0.03;14.22;0.00;0.00;0.62;;;;;17.20;1.00;;;;;;2267952;61;1462;-85
2022/05/15 05:23:55;14071.00;0.05;25.00;0.00;0.00;0.62;;;;;17.70;1.00;;;;;;2268064;61;1455;-85
2022/05/15 05:26:22;42508.00;0.14;74.23;0.00;0.00;0.62;;;;;17.90;1.00;;;;;;2268650;61;1132;-85
2022/05/15 05:28:49;18115.00;0.06;32.01;0.00;0.00;0.62;;;;;18.10;1.00;;;;;;2268583;61;2006;-84
2022/05/15 05:31:17;0.00;0.00;0.62;0.00;0.00;0.62;;;;;18.50;1.00;;;;;;2268635;61;1068;-84
2022/05/15 05:33:44;85487.00;0.28;148.51;18560.00;0.06;32.78;;;;;18.90;1.00;;;;;;2268473;61;1416;-85
2022/05/15 05:36:12;0.00;0.00;0.62;0.00;0.00;0.62;;;;;19.80;1.00;;;;;;2268746;61;939;-86
2022/05/15 05:38:40;74218.00;0.25;129.05;0.00;0.00;0.62;;;;;21.10;1.00;;;;;;2268666;61;1050;-85
2022/05/15 05:41:07;0.00;0.00;0.62;0.00;0.00;0.62;;;;;22.60;1.00;;;;;;2267933;61;1097;-86
2022/05/15 05:43:35;71718.00;0.24;124.73;0.00;0.00;0.62;;;;;24.10;1.00;;;;;;2267961;61;1424;-85
2022/05/15 05:46:02;200321.00;0.67;346.48;50991.00;0.17;88.90;;;;;24.80;1.00;;;;;;2267100;61;1077;-85
2022/05/15 05:48:29;0.00;0.00;0.62;0.00;0.00;0.62;;;;;25.80;1.00;;;;;;2266365;61;1924;-84
2022/05/15 05:50:56;49265.00;0.16;85.92;0.00;0.00;0.62;;;;;26.60;1.00;;;;;;2266668;61;1147;-85
2022/05/15 05:53:27;95395.00;0.32;165.62;0.00;0.00;0.62;;;;;27.10;1.00;;;;;;2266235;61;1368;-85
2022/05/15 05:55:55;143608.00;0.48;248.79;77994.00;0.26;135.57;;;;;27.70;1.00;;;;;;2268562;61;1132;-85
2022/05/15 05:58:22;59287.00;0.20;103.24;0.00;0.00;0.62;;;;;28.30;1.00;;;;;;2268636;61;1100;-84
2022/05/15 06:00:49;61446.00;0.20;106.98;0.00;0.00;0.62;;;;;29.00;1.00;;;;;;2268580;61;1067;-85
2022/05/15 06:06:04;43729.00;0.15;76.34;0.00;0.00;0.62;;;;;29.60;1.00;;;;;;2268485;61;787;-85
2022/05/15 06:08:31;17762.00;0.06;31.39;0.00;0.00;0.62;;;;;29.40;1.00;;;;;;2266593;61;1918;-84
2022/05/15 06:11:00;233297.00;0.78;403.22;0.00;0.00;0.62;;;;;29.50;1.00;;;;;;2266263;61;1333;-86
2022/05/15 06:13:27;1431894.00;4.77;2515.61;183237.00;0.61;317.06;;;;;29.80;1.00;;;;;;2265498;61;1369;-86
2022/05/15 06:15:54;939731.00;3.13;1626.01;131776.00;0.44;228.39;;;;;30.10;1.00;;;;;;2268525;61;1061;-84
2022/05/15 06:18:21;1225062.00;4.08;2135.60;123582.00;0.41;214.26;;;;;30.20;1.00;;;;;;2266076;61;1156;-86
2022/05/15 06:20:48;1044113.00;3.48;1810.76;67118.00;0.22;116.78;;;;;30.10;1.00;;;;;;2266048;61;1073;-86
2022/05/15 06:23:15;1370829.00;4.57;2402.33;196051.00;0.65;339.13;;;;;30.40;1.00;;;;;;2265916;61;1238;-86
2022/05/15 06:25:42;690073.00;2.30;1190.03;105908.00;0.35;183.77;;;;;30.30;1.00;;;;;;2265856;61;1160;-86
2022/05/15 06:28:10;182237.00;0.61;315.34;57137.00;0.19;99.53;;;;;29.30;1.00;;;;;;2266391;61;1114;-86
2022/05/15 06:30:37;271668.00;0.91;469.21;68137.00;0.23;118.54;;;;;29.50;1.00;;;;;;2266218;61;1936;-86
2022/05/15 06:33:05;258153.00;0.86;445.97;82066.00;0.27;142.61;;;;;29.90;1.00;;;;;;2265774;61;1355;-84
2022/05/15 06:35:32;14961.00;0.05;26.54;0.00;0.00;0.62;;;;;30.20;1.00;;;;;;2266093;61;1090;-85
2022/05/15 06:38:01;220896.00;0.74;381.89;47659.00;0.16;83.14;;;;;30.90;1.00;;;;;;2267254;61;1120;-86
2022/05/15 06:40:28;5498.00;0.02;10.15;0.00;0.00;0.62;;;;;31.30;1.00;;;;;;2267316;61;1175;-86
2022/05/15 06:42:57;46296.00;0.15;80.78;0.00;0.00;0.62;;;;;31.30;1.00;;;;;;2267387;61;1274;-86
2022/05/15 06:45:27;0.00;0.00;0.62;0.00;0.00;0.62;;;;;31.30;1.00;;;;;;2267014;61;1090;-87
2022/05/15 06:47:54;28219.00;0.09;49.50;0.00;0.00;0.62;;;;;31.10;1.00;;;;;;2267549;61;1105;-86
2022/05/15 06:50:21;0.00;0.00;0.62;0.00;0.00;0.62;;;;;31.60;1.00;;;;;;2266833;61;1943;-86
2022/05/15 06:52:48;0.00;0.00;0.62;0.00;0.00;0.62;;;;;32.50;1.00;;;;;;2267520;61;1310;-87
2022/05/15 06:55:18;70453.00;0.23;122.54;0.00;0.00;0.62;;;;;32.30;1.00;;;;;;2267427;61;1129;-85
2022/05/15 06:57:47;191976.00;0.64;332.11;0.00;0.00;0.62;;;;;32.10;1.00;;;;;;2267283;61;1089;-86
2022/05/15 07:00:16;169368.00;0.56;293.18;46631.00;0.16;81.36;;;;;32.70;1.00;;;;;;2266792;61;1068;-85
2022/05/15 07:02:46;115018.00;0.38;199.49;0.00;0.00;0.62;;;;;33.40;1.00;;;;;;2267102;61;1274;-86
2022/05/15 07:05:16;219272.00;0.73;379.09;16138.00;0.05;28.58;;;;;33.60;1.00;;;;;;2267463;61;1105;-86
2022/05/15 07:07:44;108818.00;0.36;188.79;0.00;0.00;0.62;;;;;33.30;1.00;;;;;;2268072;61;1235;-85
2022/05/15 07:10:12;141936.00;0.47;245.91;51576.00;0.17;89.91;;;;;32.90;1.00;;;;;;2268156;61;1914;-83
2022/05/15 07:12:39;174521.00;0.58;302.05;73294.00;0.24;127.45;;;;;32.70;1.00;;;;;;2268287;61;1340;-84
2022/05/15 07:15:08;0.00;0.00;0.62;0.00;0.00;0.62;;;;;32.30;1.00;;;;;;2268358;61;1124;-83
2022/05/15 07:17:35;1622333.00;5.41;2875.50;171297.00;0.57;296.50;;;;;32.10;1.00;;;;;;2267637;61;1128;-87
2022/05/15 07:20:05;900349.00;3.00;1556.73;63237.00;0.21;110.07;;;;;32.30;1.00;;;;;;2267484;61;1042;-86
2022/05/15 07:22:33;651160.00;2.17;1122.64;259349.00;0.86;448.03;;;;;33.00;1.00;;;;;;2267484;61;1284;-85
2022/05/15 07:25:00;204708.00;0.68;354.03;72732.00;0.24;126.48;;;;;33.40;1.00;;;;;;2267950;61;1090;-86
2022/05/15 07:27:27;63895.00;0.21;111.21;0.00;0.00;0.62;;;;;33.20;1.00;;;;;;2266981;61;1148;-86
2022/05/15 07:29:54;0.00;0.00;0.62;0.00;0.00;0.62;;;;;32.50;1.00;;;;;;2267440;61;2006;-86
2022/05/15 07:32:21;272183.00;0.91;470.10;93696.00;0.31;162.69;;;;;33.00;1.00;;;;;;2266988;61;1353;-85
2022/05/15 07:34:48;0.00;0.00;0.62;0.00;0.00;0.62;;;;;33.80;1.00;;;;;;2267481;61;1437;-85
2022/05/15 07:37:17;112074.00;0.37;194.41;45646.00;0.15;79.66;;;;;33.70;1.00;;;;;;2267428;61;1895;-85
2022/05/15 07:39:44;0.00;0.00;0.62;0.00;0.00;0.62;;;;;33.60;1.00;;;;;;2267642;61;2039;-85
2022/05/15 07:42:11;81130.00;0.27;140.99;0.00;0.00;0.62;;;;;33.10;1.00;;;;;;2267522;61;1367;-85
2022/05/15 07:44:38;215860.00;0.72;373.22;67000.00;0.22;116.58;;;;;33.10;1.00;;;;;;2267552;61;1410;-85
2022/05/15 07:47:08;58947.00;0.20;102.66;0.00;0.00;0.62;;;;;32.50;1.00;;;;;;2267803;61;1411;-85
2022/05/15 07:49:35;333155.00;1.11;574.91;20754.00;0.07;36.58;;;;;32.30;1.00;;;;;;2267688;61;2029;-86
2022/05/15 07:52:03;697807.00;2.33;1203.44;48477.00;0.16;84.55;;;;;33.30;1.00;;;;;;2267625;61;1333;-85
2022/05/15 07:54:33;1486890.00;4.96;2618.48;51008.00;0.17;88.93;;;;;33.10;1.00;;;;;;2267720;61;1049;-87
2022/05/15 07:57:00;996487.00;3.32;1726.25;88256.00;0.29;153.30;;;;;33.20;1.00;;;;;;2267557;61;1113;-86
2022/05/15 07:59:27;1194358.00;3.98;2080.02;215445.00;0.72;372.51;;;;;34.20;1.00;;;;;;2266854;61;1088;-86
2022/05/15 08:01:55;252756.00;0.84;436.69;73748.00;0.25;128.24;;;;;34.40;1.00;;;;;;2266921;61;1324;-85
2022/05/15 08:04:22;316880.00;1.06;546.94;66033.00;0.22;114.90;;;;;34.20;1.00;;;;;;2266927;61;1088;-86
2022/05/15 08:09:40;25560.00;0.09;44.90;0.00;0.00;0.62;;;;;33.90;1.00;;;;;;2255557;61;1923;-86
2022/05/15 08:12:09;0.00;0.00;0.62;0.00;0.00;0.62;;;;;33.90;1.00;;;;;;2266788;61;1474;-84
2022/05/15 08:14:38;154981.00;0.52;268.39;0.00;0.00;0.62;;;;;33.90;1.00;;;;;;2266917;61;1140;-85
2022/05/15 08:17:07;121729.00;0.41;211.06;0.00;0.00;0.62;;;;;33.60;1.00;;;;;;2267396;61;1040;-85
2022/05/15 08:25:05;0.00;0.00;0.62;0.00;0.00;0.62;;;;;31.40;1.00;;;;;;2267520;61;626;-86
2022/05/15 08:27:32;29177.00;0.10;51.16;0.00;0.00;0.62;;;;;30.80;1.00;;;;;;2267434;61;1117;-85
2022/05/15 08:30:00;190832.00;0.64;330.14;38282.00;0.13;66.92;;;;;31.50;1.00;;;;;;2267380;61;2000;-84
2022/05/15 08:32:29;39548.00;0.13;69.11;0.00;0.00;0.62;;;;;31.40;1.00;;;;;;2267409;61;1262;-86
2022/05/15 08:34:56;95063.00;0.32;165.05;0.00;0.00;0.62;;;;;31.00;1.00;;;;;;2267480;61;2218;-84
2022/05/15 08:37:22;36559.00;0.12;63.93;0.00;0.00;0.62;;;;;29.90;1.00;;;;;;2267435;61;1475;-85
2022/05/15 08:39:50;22876.00;0.08;40.25;0.00;0.00;0.62;;;;;29.30;1.00;;;;;;2267358;61;1310;-84
2022/05/15 08:42:23;456554.00;1.52;787.06;35225.00;0.12;61.63;;;;;29.30;1.00;;;;;;2267970;61;1319;-86
2022/05/15 08:44:56;1119999.00;3.73;1946.23;120472.00;0.40;208.90;;;;;30.50;1.00;;;;;;2267772;61;1526;-86
2022/05/15 08:47:34;572322.00;1.91;986.45;73513.00;0.25;127.83;;;;;30.50;1.00;;;;;;2268081;61;1338;-86
2022/05/15 08:50:05;19351.00;0.06;34.15;0.00;0.00;0.62;;;;;30.10;1.00;;;;;;2268020;61;2008;-86
2022/05/15 08:52:39;146075.00;0.49;253.04;0.00;0.00;0.62;;;;;30.20;1.00;;;;;;2267728;61;1955;-86
2022/05/15 08:55:10;42032.00;0.14;73.40;0.00;0.00;0.62;;;;;30.50;1.00;;;;;;2267702;61;1100;-86
2022/05/15 08:57:46;33739.00;0.11;59.05;0.00;0.00;0.62;;;;;30.40;1.00;;;;;;2266953;61;1202;-84
2022/05/15 09:00:16;28096.00;0.09;49.29;0.00;0.00;0.62;;;;;29.10;1.00;;;;;;2267528;61;1114;-84
2022/05/15 09:02:45;19553.00;0.07;34.50;0.00;0.00;0.62;;;;;29.40;1.00;;;;;;2267946;61;1361;-86
2022/05/15 09:05:14;1673652.00;5.58;2974.34;225371.00;0.75;389.58;;;;;29.80;1.00;;;;;;2266955;61;1654;-86
2022/05/15 09:07:59;119634496.00;398.78;69361728.00;77840.00;0.26;135.31;;;;;29.50;1.00;;;;;;2267415;61;1120;-85
2022/05/15 09:10:34;378762.00;1.26;653.30;127058.00;0.42;220.26;;;;;28.90;1.00;;;;;;2267743;61;1931;-86
2022/05/15 09:13:11;124941792.00;416.47;79018112.00;0.00;0.00;0.62;;;;;29.00;1.00;;;;;;2267012;61;1760;-85
2022/05/15 09:15:45;0.00;0.00;0.62;0.00;0.00;0.62;;;;;27.90;1.00;;;;;;2268687;61;1117;-85
2022/05/15 09:18:18;0.00;0.00;0.62;0.00;0.00;0.62;;;;;27.60;1.00;;;;;;2268291;61;968;-87
2022/05/15 09:20:59;67642.00;0.23;117.69;0.00;0.00;0.62;;;;;28.00;1.00;;;;;;2268226;61;1169;-86
2022/05/15 09:23:34;28932.00;0.10;50.73;0.00;0.00;0.62;;;;;28.30;1.00;;;;;;2268108;61;1483;-86
2022/05/15 09:26:12;18861.00;0.06;33.30;0.00;0.00;0.62;;;;;28.20;1.00;;;;;;2267705;61;1579;-85
2022/05/15 09:28:46;0.00;0.00;0.62;0.00;0.00;0.62;;;;;28.10;1.00;;;;;;2267711;61;1156;-84
2022/05/15 09:31:25;0.00;0.00;0.62;0.00;0.00;0.62;;;;;27.70;1.00;;;;;;2267789;61;1987;-85
2022/05/15 09:33:57;239847.00;0.80;414.49;3206.00;0.01;6.18;;;;;28.00;1.00;;;;;;2268030;61;1113;-86
2022/05/15 09:36:27;1973292.00;6.58;3569.63;102858.00;0.34;178.50;;;;;27.20;1.00;;;;;;2267887;61;1161;-85
2022/05/15 09:39:24;1316702.00;4.39;2302.70;152615.00;0.51;264.31;;;;;27.00;1.00;;;;;;2267963;61;2100;-84
2022/05/15 09:44:47;1153288.00;3.84;2005.99;103795.00;0.35;180.12;;;;;27.10;1.00;;;;;;2268569;61;721;-84
2022/05/15 09:47:26;169402.00;0.56;293.24;66239.00;0.22;115.26;;;;;27.00;1.00;;;;;;2268140;61;1354;-86
2022/05/15 09:49:53;294690.00;0.98;508.79;76717.00;0.26;133.37;;;;;26.50;1.00;;;;;;2268506;61;2003;-85
2022/05/15 09:52:27;0.00;0.00;0.62;0.00;0.00;0.62;;;;;26.40;1.00;;;;;;2268547;61;1298;-84
2022/05/15 09:55:08;55451.00;0.18;96.61;0.00;0.00;0.62;;;;;26.30;1.00;;;;;;2268531;61;1561;-84
2022/05/15 09:57:36;12474.00;0.04;22.24;0.00;0.00;0.62;;;;;26.50;1.00;;;;;;2268210;61;1094;-85
2022/05/15 10:00:13;267386.00;0.89;461.85;0.00;0.00;0.62;;;;;26.60;1.00;;;;;;2268102;61;1070;-85
2022/05/15 10:02:43;116531.00;0.39;202.10;0.00;0.00;0.62;;;;;26.70;1.00;;;;;;2267912;61;1583;-86
2022/05/15 10:05:18;0.00;0.00;0.62;0.00;0.00;0.62;;;;;26.80;1.00;;;;;;2268167;61;1134;-86